Ovid, Colorado
Current Conditions -  °F | °C
As of 2:53 AM on Thursday 18 Dec 2014 (Local Time) from KSNY Reporting Station
Clear Clear  
Wind Chill:   Ceiling: Unl
Heat Index: 10°   Visibility: 8mi
Dew Point:   Wind: 6mph
Humidity: 87%   Direction: 260°W
Pressure: 30"   Gusts: NA
Location:  40.96°N, 102.39°W
Report Text: KSNY 180953Z AUTO 26005KT 8SM CLR M12/M14 A3000 RMK AO2 SLP217 I1000 T11221139
Loading
Personal Weather Stations






























Interactive Weather Map New forecast layout! Learn more

10-Day Weather Forecast

Advertisements
Track Severe Weather on mobile